createdAt,value
2018-11-25T00:00:15.881Z,0.00
2018-11-25T00:01:15.895Z,0.00
2018-11-25T00:02:15.885Z,0.00
2018-11-25T00:03:15.846Z,0.00
2018-11-25T00:04:15.863Z,0.00
2018-11-25T00:05:15.832Z,0.00
2018-11-25T00:06:15.811Z,0.00
2018-11-25T00:07:15.878Z,0.00
2018-11-25T00:08:15.826Z,0.00
2018-11-25T00:09:15.778Z,0.00
2018-11-25T00:10:15.764Z,0.00
2018-11-25T00:11:15.775Z,0.00
2018-11-25T00:12:15.742Z,0.00
2018-11-25T00:13:15.849Z,0.00
2018-11-25T00:14:15.754Z,0.00
2018-11-25T00:15:15.740Z,0.00
2018-11-25T00:16:15.745Z,0.00
2018-11-25T00:17:15.765Z,0.00
2018-11-25T00:18:15.710Z,0.00
2018-11-25T00:19:15.669Z,0.00
2018-11-25T00:20:15.680Z,0.00
2018-11-25T00:21:15.665Z,0.00
2018-11-25T00:22:15.646Z,0.00
2018-11-25T00:23:15.642Z,0.00
2018-11-25T00:24:15.647Z,0.00
2018-11-25T00:25:15.604Z,0.00
2018-11-25T00:26:15.583Z,0.00
2018-11-25T00:27:15.591Z,0.00
2018-11-25T00:28:15.652Z,0.00
2018-11-25T00:29:15.571Z,0.00
2018-11-25T00:30:15.562Z,0.00
2018-11-25T00:31:15.565Z,0.00
2018-11-25T00:32:15.548Z,0.00
2018-11-25T00:33:15.538Z,0.00
2018-11-25T00:34:15.525Z,0.00
2018-11-25T00:35:15.509Z,0.00
2018-11-25T00:36:15.506Z,0.00
2018-11-25T00:37:15.494Z,0.00
2018-11-25T00:38:15.484Z,0.00
2018-11-25T00:39:15.463Z,0.00
2018-11-25T00:40:15.422Z,0.00
2018-11-25T00:41:15.440Z,0.00
2018-11-25T00:42:15.441Z,0.00
2018-11-25T00:43:15.396Z,0.00
2018-11-25T00:44:15.463Z,0.00
2018-11-25T00:45:15.430Z,0.00
2018-11-25T00:46:15.380Z,0.00
2018-11-25T00:47:15.388Z,0.00
2018-11-25T00:48:15.370Z,0.00
2018-11-25T00:49:15.351Z,0.00
2018-11-25T00:50:15.360Z,0.00
2018-11-25T00:51:15.338Z,0.00
2018-11-25T00:52:15.295Z,0.00
2018-11-25T00:53:15.351Z,0.00
2018-11-25T00:54:15.327Z,0.00
2018-11-25T00:55:15.288Z,0.00
2018-11-25T00:56:15.276Z,0.00
2018-11-25T00:57:15.289Z,0.00
2018-11-25T00:58:15.258Z,0.00
2018-11-25T00:59:15.239Z,0.00
2018-11-25T01:00:15.273Z,0.00
2018-11-25T01:01:15.205Z,0.00
2018-11-25T01:02:15.214Z,0.00
2018-11-25T01:03:15.213Z,0.00
2018-11-25T01:04:15.221Z,0.00
2018-11-25T01:05:15.184Z,0.00
2018-11-25T01:06:15.166Z,0.00
2018-11-25T01:07:15.162Z,0.00
2018-11-25T01:08:15.148Z,0.00
2018-11-25T01:09:15.162Z,0.00
2018-11-25T01:10:15.151Z,0.00
2018-11-25T01:11:15.085Z,0.00
2018-11-25T01:12:15.075Z,0.00
2018-11-25T01:13:15.076Z,0.00
2018-11-25T01:14:15.088Z,0.00
2018-11-25T01:15:15.112Z,0.00
2018-11-25T01:16:15.037Z,0.00
2018-11-25T01:17:15.024Z,0.00
2018-11-25T01:18:15.018Z,0.00
2018-11-25T01:19:15.004Z,0.00
2018-11-25T01:20:15.026Z,0.00
2018-11-25T01:21:15.029Z,0.00
2018-11-25T01:22:14.969Z,0.00
2018-11-25T01:23:14.994Z,0.00
2018-11-25T01:24:14.973Z,0.00
2018-11-25T01:25:14.989Z,0.00
2018-11-25T01:26:14.982Z,0.00
2018-11-25T01:27:14.968Z,0.00
2018-11-25T01:28:14.930Z,0.00
2018-11-25T01:29:14.919Z,0.00
2018-11-25T01:30:14.904Z,0.00
2018-11-25T01:31:14.945Z,0.00
2018-11-25T01:32:14.885Z,0.00
2018-11-25T01:33:14.882Z,0.00
2018-11-25T01:34:14.843Z,0.00
2018-11-25T01:35:14.838Z,0.00
2018-11-25T01:36:14.845Z,0.00
2018-11-25T01:37:14.839Z,0.00
2018-11-25T01:38:14.798Z,0.00
2018-11-25T01:39:14.783Z,0.00
2018-11-25T01:40:14.809Z,0.00
2018-11-25T01:41:14.788Z,0.00
2018-11-25T01:42:14.750Z,0.00
2018-11-25T01:43:14.774Z,0.00
2018-11-25T01:44:14.738Z,0.00
2018-11-25T01:45:14.717Z,0.00
2018-11-25T01:46:14.766Z,0.00
2018-11-25T01:47:14.723Z,0.00
2018-11-25T01:48:14.717Z,0.00
2018-11-25T01:49:14.729Z,0.00
2018-11-25T01:50:14.668Z,0.00
2018-11-25T01:51:14.657Z,0.00
2018-11-25T01:52:14.698Z,0.00
2018-11-25T01:53:14.654Z,0.00
2018-11-25T01:54:14.647Z,0.00
2018-11-25T01:55:14.621Z,0.00
2018-11-25T01:56:14.618Z,0.00
2018-11-25T01:57:14.595Z,0.00
2018-11-25T01:58:14.603Z,0.00
2018-11-25T01:59:14.581Z,0.00
2018-11-25T02:00:14.554Z,0.00
2018-11-25T02:01:14.560Z,0.00
2018-11-25T02:02:14.580Z,0.00
2018-11-25T02:03:14.523Z,0.00
2018-11-25T02:04:14.512Z,0.00
2018-11-25T02:05:14.503Z,0.00
2018-11-25T02:06:14.540Z,0.00
2018-11-25T02:07:14.479Z,0.00
2018-11-25T02:08:14.497Z,0.00
2018-11-25T02:09:14.490Z,0.00
2018-11-25T02:10:14.494Z,0.00
2018-11-25T02:11:14.465Z,0.00
2018-11-25T02:12:14.461Z,0.00
2018-11-25T02:13:14.428Z,0.00
2018-11-25T02:14:14.422Z,0.00
2018-11-25T02:15:14.400Z,0.00
2018-11-25T02:16:14.388Z,0.00
2018-11-25T02:17:14.395Z,0.00
2018-11-25T02:18:14.416Z,0.00
2018-11-25T02:19:14.366Z,0.00
2018-11-25T02:20:14.401Z,0.00
2018-11-25T02:21:14.348Z,0.00
2018-11-25T02:22:14.315Z,0.00
2018-11-25T02:23:14.333Z,0.00
2018-11-25T02:24:14.321Z,0.00
2018-11-25T02:25:14.285Z,0.00
2018-11-25T02:26:14.280Z,0.00
2018-11-25T02:27:14.283Z,0.00
2018-11-25T02:28:14.300Z,0.00
2018-11-25T02:29:14.266Z,0.00
2018-11-25T02:30:14.251Z,0.00
2018-11-25T02:31:14.238Z,0.00
2018-11-25T02:32:14.242Z,0.00
2018-11-25T02:33:14.219Z,0.00
2018-11-25T02:34:14.208Z,0.00
2018-11-25T02:35:14.167Z,0.00
2018-11-25T02:36:14.156Z,0.00
2018-11-25T02:37:14.158Z,0.00
2018-11-25T02:38:14.133Z,0.00
2018-11-25T02:39:14.156Z,0.00
2018-11-25T02:40:14.113Z,0.00
2018-11-25T02:41:14.098Z,0.00
2018-11-25T02:42:14.096Z,0.00
2018-11-25T02:43:14.097Z,0.00
2018-11-25T02:44:14.100Z,0.00
2018-11-25T02:45:14.057Z,0.00
2018-11-25T02:46:14.044Z,0.00
2018-11-25T02:47:14.036Z,0.00
2018-11-25T02:48:14.041Z,0.00
2018-11-25T02:49:14.058Z,0.00
2018-11-25T02:50:14.034Z,0.00
2018-11-25T02:51:14.020Z,0.00
2018-11-25T02:52:14.009Z,0.00
2018-11-25T02:53:13.997Z,0.00
2018-11-25T02:54:14.006Z,0.00
2018-11-25T02:55:13.967Z,0.00
2018-11-25T02:56:13.961Z,0.00
2018-11-25T02:57:13.950Z,0.00
2018-11-25T02:58:13.941Z,0.00
2018-11-25T02:59:13.959Z,0.00
2018-11-25T03:00:13.953Z,0.00
2018-11-25T03:01:13.929Z,0.00
2018-11-25T03:02:13.922Z,0.00
2018-11-25T03:03:13.879Z,0.00
2018-11-25T03:04:13.850Z,0.00
2018-11-25T03:05:13.863Z,0.00
2018-11-25T03:06:13.847Z,0.00
2018-11-25T03:07:13.890Z,0.00
2018-11-25T03:08:13.851Z,0.00
2018-11-25T03:09:13.844Z,0.00
2018-11-25T03:10:13.835Z,0.00
2018-11-25T03:11:13.835Z,0.00
2018-11-25T03:12:13.858Z,0.00
2018-11-25T03:13:13.791Z,0.00
2018-11-25T03:14:13.788Z,0.00
2018-11-25T03:15:13.744Z,0.00
2018-11-25T03:16:13.767Z,0.00
2018-11-25T03:17:13.714Z,0.00
2018-11-25T03:18:13.711Z,0.00
2018-11-25T03:19:13.704Z,0.00
2018-11-25T03:20:13.690Z,0.00
2018-11-25T03:21:13.703Z,0.00
2018-11-25T03:22:13.651Z,0.00
2018-11-25T03:23:13.677Z,0.00
2018-11-25T03:24:13.652Z,0.00
2018-11-25T03:25:13.618Z,0.00
2018-11-25T03:26:13.647Z,0.00
2018-11-25T03:27:13.614Z,0.00
2018-11-25T03:28:13.627Z,0.00
2018-11-25T03:29:13.612Z,0.00
2018-11-25T03:31:32.322Z,0.00
2018-11-25T03:32:30.280Z,0.00
2018-11-25T03:33:30.259Z,0.00
2018-11-25T03:34:30.253Z,0.00
2018-11-25T03:35:30.236Z,0.00
2018-11-25T03:36:30.255Z,0.00
2018-11-25T03:37:30.212Z,0.00
2018-11-25T03:38:30.224Z,0.00
2018-11-25T03:39:30.170Z,0.00
2018-11-25T03:40:30.158Z,0.00
2018-11-25T03:41:30.155Z,0.00
2018-11-25T03:42:30.156Z,0.00
2018-11-25T03:43:30.127Z,0.00
2018-11-25T03:44:30.117Z,0.00
2018-11-25T03:45:30.098Z,0.00
2018-11-25T03:46:30.088Z,0.00
2018-11-25T03:47:30.130Z,0.00
2018-11-25T03:48:30.066Z,0.00
2018-11-25T03:49:30.053Z,0.00
2018-11-25T03:50:30.044Z,0.00
2018-11-25T03:51:30.059Z,0.00
2018-11-25T03:52:30.058Z,0.00
2018-11-25T03:53:30.019Z,0.00
2018-11-25T03:54:30.033Z,0.00
2018-11-25T03:55:29.992Z,0.00
2018-11-25T03:56:29.995Z,0.00
2018-11-25T03:57:29.966Z,0.00
2018-11-25T03:58:29.980Z,0.00
2018-11-25T03:59:29.943Z,0.00
2018-11-25T04:00:29.982Z,0.00
2018-11-25T04:01:29.953Z,0.00
2018-11-25T04:02:29.964Z,0.00
2018-11-25T04:03:29.930Z,0.00
2018-11-25T04:04:29.895Z,0.00
2018-11-25T04:05:29.889Z,0.00
2018-11-25T04:06:29.867Z,0.00
2018-11-25T04:07:29.914Z,0.00
2018-11-25T04:08:29.904Z,0.00
2018-11-25T04:09:29.844Z,0.00
2018-11-25T04:10:29.841Z,0.00
2018-11-25T04:11:29.837Z,0.00
2018-11-25T04:12:29.811Z,0.00
2018-11-25T04:13:29.795Z,0.00
2018-11-25T04:14:29.801Z,0.00
2018-11-25T04:15:29.793Z,0.00
2018-11-25T04:16:29.762Z,0.00
2018-11-25T04:17:29.750Z,0.00
2018-11-25T04:18:29.774Z,0.00
2018-11-25T04:19:29.798Z,0.00
2018-11-25T04:20:29.720Z,0.00
2018-11-25T04:21:29.702Z,0.00
2018-11-25T04:22:29.691Z,0.00
2018-11-25T04:23:29.708Z,0.00
2018-11-25T04:24:29.696Z,0.00
2018-11-25T04:25:29.660Z,0.00
2018-11-25T04:26:29.648Z,0.00
2018-11-25T04:27:29.894Z,0.00
2018-11-25T04:28:29.650Z,0.00
2018-11-25T04:29:29.613Z,0.00
2018-11-25T04:30:29.642Z,0.00
2018-11-25T04:31:29.602Z,0.00
2018-11-25T04:32:29.605Z,0.00
2018-11-25T04:33:29.569Z,0.00
2018-11-25T04:34:29.613Z,0.00
2018-11-25T04:35:29.544Z,0.00
2018-11-25T04:36:29.540Z,0.00
2018-11-25T04:37:29.568Z,0.00
2018-11-25T04:38:29.565Z,0.00
2018-11-25T04:39:29.557Z,0.00
2018-11-25T04:40:29.571Z,0.00
2018-11-25T04:41:29.504Z,0.00
2018-11-25T04:42:29.516Z,0.00
2018-11-25T04:43:29.501Z,0.00
2018-11-25T04:44:29.480Z,0.00
2018-11-25T04:45:29.519Z,0.00
2018-11-25T04:46:29.428Z,0.00
2018-11-25T04:47:29.425Z,0.00
2018-11-25T04:48:29.457Z,0.00
2018-11-25T04:49:29.430Z,0.00
2018-11-25T04:50:29.409Z,0.00
2018-11-25T04:51:29.374Z,0.00
2018-11-25T04:52:29.385Z,0.00
2018-11-25T04:53:29.374Z,0.00
2018-11-25T04:54:29.344Z,0.00
2018-11-25T04:55:29.395Z,0.00
2018-11-25T04:56:29.315Z,0.00
2018-11-25T04:57:29.313Z,0.00
2018-11-25T04:58:29.300Z,0.00
2018-11-25T04:59:29.310Z,0.00
2018-11-25T05:00:29.279Z,0.00
2018-11-25T05:01:29.296Z,0.00
2018-11-25T05:02:29.257Z,0.00
2018-11-25T05:03:29.258Z,0.00
2018-11-25T05:04:29.231Z,0.00
2018-11-25T05:05:29.247Z,0.00
2018-11-25T05:06:29.230Z,0.00
2018-11-25T05:07:29.205Z,0.00
2018-11-25T05:08:29.219Z,0.00
2018-11-25T05:09:29.204Z,0.00
2018-11-25T05:10:29.193Z,0.00
2018-11-25T05:11:29.193Z,0.00
2018-11-25T05:12:29.144Z,0.00
2018-11-25T05:13:29.161Z,0.00
2018-11-25T05:14:29.124Z,0.00
2018-11-25T05:15:29.129Z,0.00
2018-11-25T05:16:29.129Z,0.00
2018-11-25T05:17:30.204Z,0.00
2018-11-25T05:18:29.112Z,0.00
2018-11-25T05:19:29.100Z,0.00
2018-11-25T05:20:29.059Z,0.00
2018-11-25T05:21:29.067Z,0.00
2018-11-25T05:22:29.061Z,0.00
2018-11-25T05:23:29.025Z,0.00
2018-11-25T05:24:29.063Z,0.00
2018-11-25T05:25:29.004Z,0.00
2018-11-25T05:26:28.987Z,0.00
2018-11-25T05:27:29.035Z,0.00
2018-11-25T05:28:28.999Z,0.00
2018-11-25T05:29:28.957Z,0.00
2018-11-25T05:30:28.977Z,0.00
2018-11-25T05:31:28.958Z,0.00
2018-11-25T05:32:28.962Z,0.00
2018-11-25T05:33:28.917Z,0.00
2018-11-25T05:34:28.927Z,0.00
2018-11-25T05:35:28.920Z,0.00
2018-11-25T05:36:28.895Z,0.00
2018-11-25T05:37:28.907Z,0.00
2018-11-25T05:38:28.887Z,0.00
2018-11-25T05:39:28.869Z,0.00
2018-11-25T05:40:28.864Z,0.00
2018-11-25T05:41:28.831Z,0.00
2018-11-25T05:42:28.855Z,0.00
2018-11-25T05:43:28.833Z,0.00
2018-11-25T05:44:28.801Z,0.00
2018-11-25T05:45:28.790Z,0.00
2018-11-25T05:46:28.777Z,0.00
2018-11-25T05:47:28.769Z,0.00
2018-11-25T05:48:28.856Z,0.00
2018-11-25T05:49:36.277Z,0.00
2018-11-25T05:50:29.734Z,0.00
2018-11-25T05:51:28.723Z,0.00
2018-11-25T05:52:28.712Z,0.00
2018-11-25T05:53:28.727Z,0.00
2018-11-25T05:54:28.701Z,0.00
2018-11-25T05:55:28.676Z,0.00
2018-11-25T05:56:28.670Z,0.00
2018-11-25T05:57:28.678Z,0.00
2018-11-25T05:58:28.669Z,0.00
2018-11-25T05:59:28.636Z,0.00
2018-11-25T06:00:28.646Z,0.00
2018-11-25T06:01:28.616Z,0.00
2018-11-25T06:02:28.608Z,0.00
2018-11-25T06:03:28.623Z,0.00
2018-11-25T06:04:28.583Z,0.00
2018-11-25T06:05:28.588Z,0.00
2018-11-25T06:06:28.561Z,0.00
2018-11-25T06:07:28.556Z,0.00
2018-11-25T06:08:28.575Z,0.00
2018-11-25T06:09:28.550Z,0.00
2018-11-25T06:10:28.517Z,0.00
2018-11-25T06:11:28.520Z,0.00
2018-11-25T06:12:28.497Z,0.00
2018-11-25T06:13:28.485Z,0.00
2018-11-25T06:14:28.509Z,0.00
2018-11-25T06:15:28.468Z,0.00
2018-11-25T06:16:28.480Z,0.00
2018-11-25T06:17:28.477Z,0.00
2018-11-25T06:18:28.488Z,0.00
2018-11-25T06:19:28.423Z,0.00
2018-11-25T06:20:28.411Z,0.00
2018-11-25T06:21:28.428Z,0.00
2018-11-25T06:22:28.439Z,0.00
2018-11-25T06:23:28.432Z,0.00
2018-11-25T06:24:28.416Z,0.00
2018-11-25T06:25:28.376Z,0.00
2018-11-25T06:26:28.345Z,0.00
2018-11-25T06:27:28.379Z,0.00
2018-11-25T06:28:28.370Z,0.00
2018-11-25T06:29:28.367Z,0.00
2018-11-25T06:30:28.320Z,0.00
2018-11-25T06:31:28.322Z,0.00
2018-11-25T06:32:28.301Z,0.00
2018-11-25T06:33:28.292Z,0.00
2018-11-25T06:34:28.322Z,0.00
2018-11-25T06:35:28.273Z,0.00
2018-11-25T06:36:28.234Z,0.00
2018-11-25T06:37:28.227Z,0.00
2018-11-25T06:38:28.212Z,0.00
2018-11-25T06:39:28.201Z,0.00
2018-11-25T06:40:28.221Z,0.00
2018-11-25T06:41:33.858Z,0.00
2018-11-25T06:42:29.165Z,0.00
2018-11-25T06:43:28.157Z,0.00
2018-11-25T06:44:28.174Z,0.00
2018-11-25T06:45:28.169Z,0.00
2018-11-25T06:46:28.164Z,4.00
2018-11-25T06:47:28.120Z,4.00
2018-11-25T06:48:28.106Z,0.00
2018-11-25T06:49:28.102Z,0.00
2018-11-25T06:50:28.126Z,4.00
2018-11-25T06:51:28.094Z,4.00
2018-11-25T06:52:28.073Z,4.00
2018-11-25T06:53:28.052Z,0.00
2018-11-25T06:54:28.042Z,4.00
2018-11-25T06:55:28.057Z,4.00
2018-11-25T06:56:28.023Z,4.00
2018-11-25T06:57:28.030Z,4.00
2018-11-25T06:58:28.034Z,4.00
2018-11-25T06:59:27.985Z,4.00
2018-11-25T07:00:28.004Z,4.00
2018-11-25T07:01:27.968Z,8.00
2018-11-25T07:02:27.993Z,8.00
2018-11-25T07:03:27.975Z,8.00
2018-11-25T07:04:27.943Z,8.00
2018-11-25T07:05:27.945Z,8.00
2018-11-25T07:06:27.936Z,8.00
2018-11-25T07:07:27.901Z,12.00
2018-11-25T07:08:27.915Z,12.00
2018-11-25T07:09:27.885Z,16.00
2018-11-25T07:10:27.937Z,16.00
2018-11-25T07:11:27.862Z,16.00
2018-11-25T07:12:27.850Z,16.00
2018-11-25T07:13:27.835Z,20.00
2018-11-25T07:14:27.822Z,20.00
2018-11-25T07:15:27.853Z,20.00
2018-11-25T07:16:27.832Z,20.00
2018-11-25T07:17:27.786Z,24.00
2018-11-25T07:18:27.777Z,24.00
2018-11-25T07:19:27.770Z,24.00
2018-11-25T07:20:27.761Z,20.00
2018-11-25T07:21:27.767Z,24.00
2018-11-25T07:22:27.752Z,20.00
2018-11-25T07:23:27.727Z,20.00
2018-11-25T07:24:27.714Z,20.00
2018-11-25T07:25:27.725Z,24.00
2018-11-25T07:26:27.726Z,20.00
2018-11-25T07:27:27.709Z,20.00
2018-11-25T07:28:27.721Z,24.00
2018-11-25T07:29:27.658Z,24.00
2018-11-25T07:30:27.646Z,28.00
2018-11-25T07:31:27.657Z,36.00
2018-11-25T07:32:27.672Z,36.00
2018-11-25T07:33:27.631Z,40.00
2018-11-25T07:34:27.613Z,40.00
2018-11-25T07:35:27.592Z,44.00
2018-11-25T07:36:27.581Z,44.00
2018-11-25T07:37:27.590Z,56.00
2018-11-25T07:38:27.555Z,60.00
2018-11-25T07:39:27.560Z,60.00
2018-11-25T07:40:27.538Z,64.00
2018-11-25T07:41:27.530Z,68.00
2018-11-25T07:42:27.566Z,68.00
2018-11-25T07:43:27.523Z,76.00
2018-11-25T07:44:27.496Z,76.00
2018-11-25T07:45:30.521Z,76.00
2018-11-25T07:46:27.471Z,76.00
2018-11-25T07:47:27.495Z,80.00
2018-11-25T07:48:27.484Z,84.00
2018-11-25T07:49:27.436Z,96.00
2018-11-25T07:50:27.420Z,92.00
2018-11-25T07:51:27.429Z,100.00
2018-11-25T07:52:27.436Z,112.00
2018-11-25T07:53:27.434Z,132.00
2018-11-25T07:54:27.408Z,140.00
2018-11-25T07:55:27.405Z,136.00
2018-11-25T07:56:27.357Z,132.00
2018-11-25T07:57:27.410Z,144.00
2018-11-25T07:58:27.366Z,168.00
2018-11-25T07:59:27.335Z,168.00
2018-11-25T08:00:27.312Z,168.00
2018-11-25T08:01:27.335Z,168.00
2018-11-25T08:02:27.850Z,164.00
2018-11-25T08:03:27.329Z,160.00
2018-11-25T08:04:27.276Z,160.00
2018-11-25T08:05:27.264Z,176.00
2018-11-25T08:06:27.253Z,180.00
2018-11-25T08:07:27.312Z,184.00
2018-11-25T08:08:27.244Z,184.00
2018-11-25T08:09:27.259Z,188.00
2018-11-25T08:10:27.258Z,180.00
2018-11-25T08:11:27.193Z,172.00
2018-11-25T08:12:27.211Z,156.00
2018-11-25T08:13:27.192Z,160.00
2018-11-25T08:14:27.216Z,164.00
2018-11-25T08:15:27.186Z,160.00
2018-11-25T08:16:27.198Z,156.00
2018-11-25T08:17:27.160Z,156.00
2018-11-25T08:18:27.138Z,152.00
2018-11-25T08:19:27.103Z,148.00
2018-11-25T08:20:27.094Z,152.00
2018-11-25T08:21:27.081Z,148.00
2018-11-25T08:22:27.070Z,144.00
2018-11-25T08:23:27.085Z,140.00
2018-11-25T08:24:27.047Z,140.00
2018-11-25T08:25:27.038Z,136.00
2018-11-25T08:26:27.027Z,136.00
2018-11-25T08:27:27.023Z,140.00
2018-11-25T08:28:27.069Z,148.00
2018-11-25T08:29:26.994Z,152.00
2018-11-25T08:30:26.983Z,148.00
2018-11-25T08:31:26.982Z,148.00
2018-11-25T08:32:26.959Z,160.00
2018-11-25T08:33:26.950Z,160.00
2018-11-25T08:34:26.966Z,156.00
2018-11-25T08:35:26.981Z,164.00
2018-11-25T08:36:26.924Z,180.00
2018-11-25T08:37:26.915Z,192.00
2018-11-25T08:38:26.896Z,204.00
2018-11-25T08:39:26.923Z,212.00
2018-11-25T08:40:26.905Z,224.00
2018-11-25T08:41:26.864Z,252.00
2018-11-25T08:42:26.853Z,268.00
2018-11-25T08:43:26.838Z,268.00
2018-11-25T08:44:26.825Z,284.00
2018-11-25T08:45:26.814Z,296.00
2018-11-25T08:46:26.832Z,320.00
2018-11-25T08:47:26.817Z,328.00
2018-11-25T08:48:26.809Z,316.00
2018-11-25T08:49:27.027Z,308.00
2018-11-25T08:50:26.762Z,320.00
2018-11-25T08:51:26.782Z,352.00
2018-11-25T08:52:26.745Z,352.00
2018-11-25T08:53:26.734Z,368.00
2018-11-25T08:54:26.854Z,364.00
2018-11-25T08:55:26.727Z,368.00
2018-11-25T08:56:26.693Z,396.00
2018-11-25T08:57:26.682Z,404.00
2018-11-25T08:58:26.678Z,368.00
2018-11-25T08:59:26.687Z,372.00
2018-11-25T09:00:27.335Z,388.00
2018-11-25T09:01:26.648Z,420.00
2018-11-25T09:02:26.627Z,428.00
2018-11-25T09:03:26.628Z,432.00
2018-11-25T09:04:26.610Z,424.00
2018-11-25T09:05:26.666Z,400.00
2018-11-25T09:06:26.608Z,372.00
2018-11-25T09:07:26.676Z,364.00
2018-11-25T09:08:26.557Z,368.00
2018-11-25T09:09:26.547Z,380.00
2018-11-25T09:10:26.569Z,384.00
2018-11-25T09:11:26.526Z,376.00
2018-11-25T09:12:26.522Z,384.00
2018-11-25T09:13:26.507Z,392.00
2018-11-25T09:14:26.502Z,400.00
2018-11-25T09:15:26.511Z,408.00
2018-11-25T09:16:26.471Z,408.00
2018-11-25T09:17:26.469Z,404.00
2018-11-25T09:18:26.567Z,400.00
2018-11-25T09:19:26.618Z,392.00
2018-11-25T09:20:26.451Z,388.00
2018-11-25T09:21:26.442Z,404.00
2018-11-25T09:22:26.410Z,408.00
2018-11-25T09:23:26.395Z,396.00
2018-11-25T09:24:26.397Z,396.00
2018-11-25T09:25:26.397Z,376.00
2018-11-25T09:26:26.364Z,360.00
2018-11-25T09:27:26.350Z,372.00
2018-11-25T09:28:26.459Z,388.00
2018-11-25T09:29:26.326Z,376.00
2018-11-25T09:30:26.357Z,372.00
2018-11-25T09:31:26.334Z,368.00
2018-11-25T09:32:26.297Z,372.00
2018-11-25T09:33:26.285Z,384.00
2018-11-25T09:34:26.294Z,408.00
2018-11-25T09:35:26.276Z,404.00
2018-11-25T09:36:26.302Z,384.00
2018-11-25T09:37:26.244Z,392.00
2018-11-25T09:38:26.234Z,392.00
2018-11-25T09:39:26.234Z,404.00
2018-11-25T09:40:26.235Z,432.00
2018-11-25T09:41:26.282Z,448.00
2018-11-25T09:42:26.223Z,464.00
2018-11-25T09:43:26.178Z,468.00
2018-11-25T09:44:26.192Z,480.00
2018-11-25T09:45:26.168Z,496.00
2018-11-25T09:46:26.170Z,512.00
2018-11-25T09:47:26.164Z,512.00
2018-11-25T09:48:26.235Z,496.00
2018-11-25T09:49:26.175Z,492.00
2018-11-25T09:50:26.103Z,512.00
2018-11-25T09:51:26.117Z,520.00
2018-11-25T09:52:26.106Z,508.00
2018-11-25T09:53:26.113Z,500.00
2018-11-25T09:54:26.117Z,460.00
2018-11-25T09:55:26.076Z,428.00
2018-11-25T09:56:26.063Z,464.00
2018-11-25T09:57:26.054Z,460.00
2018-11-25T09:58:26.021Z,428.00
2018-11-25T09:59:26.002Z,392.00
2018-11-25T10:00:26.005Z,400.00
2018-11-25T10:01:25.984Z,420.00
2018-11-25T10:02:25.994Z,420.00
2018-11-25T10:03:25.989Z,416.00
2018-11-25T10:04:25.978Z,404.00
2018-11-25T10:05:25.964Z,420.00
2018-11-25T10:06:25.977Z,424.00
2018-11-25T10:07:25.957Z,436.00
2018-11-25T10:08:25.932Z,444.00
2018-11-25T10:09:25.894Z,464.00
2018-11-25T10:10:25.912Z,460.00
2018-11-25T10:11:25.872Z,468.00
2018-11-25T10:12:25.884Z,484.00
2018-11-25T10:13:25.889Z,492.00
2018-11-25T10:14:25.838Z,520.00
2018-11-25T10:15:25.828Z,536.00
2018-11-25T10:16:25.822Z,540.00
2018-11-25T10:17:25.811Z,540.00
2018-11-25T10:18:25.830Z,508.00
2018-11-25T10:19:25.842Z,516.00
2018-11-25T10:20:25.778Z,500.00
2018-11-25T10:21:25.768Z,508.00
2018-11-25T10:22:25.758Z,488.00
2018-11-25T10:23:25.953Z,492.00
2018-11-25T10:24:25.767Z,504.00
2018-11-25T10:25:25.746Z,480.00
2018-11-25T10:26:25.740Z,464.00
2018-11-25T10:27:25.698Z,460.00
2018-11-25T10:28:25.741Z,452.00
2018-11-25T10:29:25.765Z,452.00
2018-11-25T10:30:25.700Z,448.00
2018-11-25T10:31:25.668Z,416.00
2018-11-25T10:32:25.671Z,392.00
2018-11-25T10:33:25.660Z,384.00
2018-11-25T10:34:25.677Z,372.00
2018-11-25T10:35:25.614Z,368.00
2018-11-25T10:36:25.621Z,380.00
2018-11-25T10:37:25.595Z,376.00
2018-11-25T10:38:25.610Z,396.00
2018-11-25T10:39:25.617Z,412.00
2018-11-25T10:40:25.595Z,400.00
2018-11-25T10:41:25.577Z,380.00
2018-11-25T10:42:25.537Z,384.00
2018-11-25T10:43:25.534Z,384.00
2018-11-25T10:44:25.552Z,384.00
2018-11-25T10:45:25.529Z,372.00
2018-11-25T10:46:25.505Z,368.00
2018-11-25T10:47:25.509Z,372.00
2018-11-25T10:48:25.474Z,376.00
2018-11-25T10:49:25.463Z,364.00
2018-11-25T10:50:25.485Z,356.00
2018-11-25T10:51:25.441Z,340.00
2018-11-25T10:52:25.432Z,332.00
2018-11-25T10:53:25.420Z,332.00
2018-11-25T10:54:25.403Z,352.00
2018-11-25T10:55:25.443Z,376.00
2018-11-25T10:56:25.393Z,392.00
2018-11-25T10:57:25.414Z,420.00
2018-11-25T10:58:25.366Z,392.00
2018-11-25T10:59:25.374Z,372.00
2018-11-25T11:00:25.365Z,388.00
2018-11-25T11:01:25.334Z,396.00
2018-11-25T11:02:25.317Z,388.00
2018-11-25T11:03:25.344Z,396.00
2018-11-25T11:04:25.316Z,388.00
2018-11-25T11:05:25.313Z,392.00
2018-11-25T11:06:25.341Z,368.00
2018-11-25T11:07:25.599Z,368.00
2018-11-25T11:08:25.281Z,368.00
2018-11-25T11:09:25.255Z,372.00
2018-11-25T11:10:25.255Z,368.00
2018-11-25T11:11:25.252Z,368.00
2018-11-25T11:12:25.208Z,360.00
2018-11-25T11:13:25.222Z,356.00
2018-11-25T11:14:25.199Z,352.00
2018-11-25T11:15:25.208Z,348.00
2018-11-25T11:16:25.215Z,336.00
2018-11-25T11:17:25.155Z,340.00
2018-11-25T11:18:25.141Z,332.00
2018-11-25T11:19:25.140Z,336.00
2018-11-25T11:20:25.139Z,344.00
2018-11-25T11:21:26.509Z,368.00
2018-11-25T11:22:25.101Z,388.00
2018-11-25T11:23:25.091Z,372.00
2018-11-25T11:24:25.087Z,356.00
2018-11-25T11:25:25.083Z,348.00
2018-11-25T11:26:25.090Z,340.00
2018-11-25T11:27:25.063Z,328.00
2018-11-25T11:28:25.041Z,320.00
2018-11-25T11:29:25.029Z,312.00
2018-11-25T11:30:25.017Z,308.00
2018-11-25T11:31:25.025Z,296.00
2018-11-25T11:32:24.994Z,300.00
2018-11-25T11:33:25.010Z,308.00
2018-11-25T11:34:25.000Z,312.00
2018-11-25T11:35:24.958Z,304.00
2018-11-25T11:36:24.976Z,308.00
2018-11-25T11:37:24.949Z,336.00
2018-11-25T11:38:24.951Z,328.00
2018-11-25T11:39:24.918Z,304.00
2018-11-25T11:40:24.928Z,280.00
2018-11-25T11:41:24.920Z,284.00
2018-11-25T11:42:28.661Z,272.00
2018-11-25T11:43:24.876Z,260.00
2018-11-25T11:44:24.864Z,272.00
2018-11-25T11:45:24.862Z,276.00
2018-11-25T11:46:24.881Z,272.00
2018-11-25T11:47:24.844Z,308.00
2018-11-25T11:48:24.818Z,328.00
2018-11-25T11:49:24.813Z,308.00
2018-11-25T11:50:24.797Z,312.00
2018-11-25T11:51:26.073Z,316.00
2018-11-25T11:52:24.813Z,308.00
2018-11-25T11:53:24.793Z,308.00
2018-11-25T11:54:24.758Z,316.00
2018-11-25T11:55:24.743Z,316.00
2018-11-25T11:56:24.735Z,300.00
2018-11-25T11:57:24.759Z,292.00
2018-11-25T11:58:24.715Z,308.00
2018-11-25T11:59:24.714Z,320.00
2018-11-25T12:00:24.691Z,320.00
2018-11-25T12:01:24.682Z,296.00
2018-11-25T12:02:31.382Z,292.00
2018-11-25T12:03:26.633Z,304.00
2018-11-25T12:04:24.656Z,300.00
2018-11-25T12:05:24.644Z,292.00
2018-11-25T12:06:24.623Z,272.00
2018-11-25T12:07:24.619Z,264.00
2018-11-25T12:08:24.601Z,256.00
2018-11-25T12:09:24.621Z,240.00
2018-11-25T12:10:24.593Z,236.00
2018-11-25T12:11:24.607Z,236.00
2018-11-25T12:12:24.562Z,240.00
2018-11-25T12:13:24.573Z,240.00
2018-11-25T12:14:24.596Z,240.00
2018-11-25T12:15:30.253Z,236.00
2018-11-25T12:16:25.547Z,232.00
2018-11-25T12:17:24.540Z,232.00
2018-11-25T12:18:24.587Z,256.00
2018-11-25T12:19:24.516Z,260.00
2018-11-25T12:20:24.481Z,236.00
2018-11-25T12:21:24.474Z,232.00
2018-11-25T12:22:24.458Z,252.00
2018-11-25T12:23:24.475Z,244.00
2018-11-25T12:24:24.441Z,240.00
2018-11-25T12:25:24.433Z,236.00
2018-11-25T12:26:24.418Z,240.00
2018-11-25T12:27:24.402Z,244.00
2018-11-25T12:28:24.410Z,252.00
2018-11-25T12:29:24.417Z,268.00
2018-11-25T12:30:24.397Z,268.00
2018-11-25T12:31:24.383Z,264.00
2018-11-25T12:32:24.357Z,256.00
2018-11-25T12:33:24.347Z,244.00
2018-11-25T12:34:24.333Z,272.00
2018-11-25T12:35:24.349Z,288.00
2018-11-25T12:36:24.309Z,272.00
2018-11-25T12:37:24.344Z,252.00
2018-11-25T12:38:24.282Z,244.00
2018-11-25T12:39:28.262Z,236.00
2018-11-25T12:40:24.286Z,244.00
2018-11-25T12:41:24.245Z,224.00
2018-11-25T12:42:24.247Z,216.00
2018-11-25T12:43:24.226Z,240.00
2018-11-25T12:44:29.149Z,228.00
2018-11-25T12:45:25.226Z,220.00
2018-11-25T12:46:24.201Z,212.00
2018-11-25T12:47:24.369Z,208.00
2018-11-25T12:48:24.190Z,220.00
2018-11-25T12:49:24.163Z,220.00
2018-11-25T12:50:24.185Z,232.00
2018-11-25T12:51:24.150Z,224.00
2018-11-25T12:52:24.127Z,224.00
2018-11-25T12:53:24.120Z,228.00
2018-11-25T12:54:24.113Z,220.00
2018-11-25T12:55:24.132Z,220.00
2018-11-25T12:56:24.091Z,244.00
2018-11-25T12:57:24.080Z,244.00